sensor_id;sensor_type;location;lat;lon;timestamp;P1;durP1;ratioP1;P2;durP2;ratioP2
20138;SDS011;10230;51.502;10.800;2023-05-10T00:01:37;6.73;;;1.90;;
20138;SDS011;10230;51.502;10.800;2023-05-10T00:04:03;3.47;;;1.60;;
20138;SDS011;10230;51.502;10.800;2023-05-10T00:06:29;1.90;;;1.63;;
20138;SDS011;10230;51.502;10.800;2023-05-10T00:08:56;2.70;;;1.90;;
20138;SDS011;10230;51.502;10.800;2023-05-10T00:11:22;5.27;;;1.90;;
20138;SDS011;10230;51.502;10.800;2023-05-10T00:13:48;2.15;;;1.90;;
20138;SDS011;10230;51.502;10.800;2023-05-10T00:16:14;3.03;;;1.98;;
20138;SDS011;10230;51.502;10.800;2023-05-10T00:18:40;2.50;;;2.30;;
20138;SDS011;10230;51.502;10.800;2023-05-10T00:21:06;2.70;;;2.07;;
20138;SDS011;10230;51.502;10.800;2023-05-10T00:23:32;2.47;;;2.15;;
20138;SDS011;10230;51.502;10.800;2023-05-10T00:25:58;2.60;;;2.13;;
20138;SDS011;10230;51.502;10.800;2023-05-10T00:28:24;6.05;;;2.40;;
20138;SDS011;10230;51.502;10.800;2023-05-10T00:30:50;3.13;;;2.13;;
20138;SDS011;10230;51.502;10.800;2023-05-10T00:33:16;2.53;;;1.90;;
20138;SDS011;10230;51.502;10.800;2023-05-10T00:35:43;2.40;;;2.10;;
20138;SDS011;10230;51.502;10.800;2023-05-10T00:38:09;2.67;;;1.60;;
20138;SDS011;10230;51.502;10.800;2023-05-10T00:40:35;2.30;;;1.73;;
20138;SDS011;10230;51.502;10.800;2023-05-10T00:43:02;4.00;;;2.03;;
20138;SDS011;10230;51.502;10.800;2023-05-10T00:45:29;7.00;;;2.67;;
20138;SDS011;10230;51.502;10.800;2023-05-10T00:47:55;4.20;;;2.20;;
20138;SDS011;10230;51.502;10.800;2023-05-10T00:50:21;3.08;;;1.80;;
20138;SDS011;10230;51.502;10.800;2023-05-10T00:52:47;2.80;;;2.23;;
20138;SDS011;10230;51.502;10.800;2023-05-10T00:55:13;5.67;;;1.80;;
20138;SDS011;10230;51.502;10.800;2023-05-10T00:57:39;3.53;;;1.70;;
20138;SDS011;10230;51.502;10.800;2023-05-10T01:00:06;6.93;;;3.20;;
20138;SDS011;10230;51.502;10.800;2023-05-10T01:02:33;2.57;;;2.00;;
20138;SDS011;10230;51.502;10.800;2023-05-10T01:05:00;3.10;;;1.50;;
20138;SDS011;10230;51.502;10.800;2023-05-10T01:07:28;4.07;;;2.07;;
20138;SDS011;10230;51.502;10.800;2023-05-10T01:09:54;6.07;;;2.10;;
20138;SDS011;10230;51.502;10.800;2023-05-10T01:12:20;2.33;;;1.73;;
20138;SDS011;10230;51.502;10.800;2023-05-10T01:14:47;3.07;;;2.27;;
20138;SDS011;10230;51.502;10.800;2023-05-10T01:17:13;2.30;;;1.93;;
20138;SDS011;10230;51.502;10.800;2023-05-10T01:19:40;2.93;;;1.73;;
20138;SDS011;10230;51.502;10.800;2023-05-10T01:41:08;2.00;;;1.60;;
20138;SDS011;10230;51.502;10.800;2023-05-10T01:43:43;2.20;;;1.57;;
20138;SDS011;10230;51.502;10.800;2023-05-10T01:46:17;3.60;;;1.73;;
20138;SDS011;10230;51.502;10.800;2023-05-10T01:48:51;2.30;;;1.83;;
20138;SDS011;10230;51.502;10.800;2023-05-10T01:51:19;3.73;;;1.90;;
20138;SDS011;10230;51.502;10.800;2023-05-10T01:53:47;2.00;;;1.70;;
20138;SDS011;10230;51.502;10.800;2023-05-10T01:56:14;2.72;;;2.05;;
20138;SDS011;10230;51.502;10.800;2023-05-10T01:58:40;3.07;;;1.87;;
20138;SDS011;10230;51.502;10.800;2023-05-10T02:01:10;2.63;;;1.90;;
20138;SDS011;10230;51.502;10.800;2023-05-10T02:03:36;2.60;;;1.70;;
20138;SDS011;10230;51.502;10.800;2023-05-10T02:06:04;1.70;;;1.60;;
20138;SDS011;10230;51.502;10.800;2023-05-10T02:08:31;3.37;;;2.20;;
20138;SDS011;10230;51.502;10.800;2023-05-10T02:10:58;2.70;;;1.80;;
20138;SDS011;10230;51.502;10.800;2023-05-10T02:13:25;5.80;;;2.10;;
20138;SDS011;10230;51.502;10.800;2023-05-10T02:15:51;3.20;;;1.77;;
20138;SDS011;10230;51.502;10.800;2023-05-10T02:18:18;2.70;;;1.85;;
20138;SDS011;10230;51.502;10.800;2023-05-10T02:20:45;4.90;;;2.17;;
20138;SDS011;10230;51.502;10.800;2023-05-10T02:23:12;3.57;;;1.83;;
20138;SDS011;10230;51.502;10.800;2023-05-10T02:25:38;2.13;;;1.80;;
20138;SDS011;10230;51.502;10.800;2023-05-10T02:28:05;2.50;;;1.80;;
20138;SDS011;10230;51.502;10.800;2023-05-10T02:30:31;3.28;;;1.80;;
20138;SDS011;10230;51.502;10.800;2023-05-10T02:32:58;2.17;;;1.80;;
20138;SDS011;10230;51.502;10.800;2023-05-10T02:35:25;2.42;;;1.95;;
20138;SDS011;10230;51.502;10.800;2023-05-10T02:37:51;1.93;;;1.73;;
20138;SDS011;10230;51.502;10.800;2023-05-10T02:40:18;2.63;;;2.35;;
20138;SDS011;10230;51.502;10.800;2023-05-10T02:42:45;4.13;;;1.98;;
20138;SDS011;10230;51.502;10.800;2023-05-10T02:45:15;2.87;;;2.10;;
20138;SDS011;10230;51.502;10.800;2023-05-10T02:47:42;3.60;;;2.05;;
20138;SDS011;10230;51.502;10.800;2023-05-10T02:50:09;3.33;;;2.33;;
20138;SDS011;10230;51.502;10.800;2023-05-10T02:52:46;3.78;;;1.75;;
20138;SDS011;10230;51.502;10.800;2023-05-10T02:55:14;3.10;;;1.90;;
20138;SDS011;10230;51.502;10.800;2023-05-10T02:57:46;2.73;;;2.10;;
20138;SDS011;10230;51.502;10.800;2023-05-10T03:00:14;3.53;;;1.70;;
20138;SDS011;10230;51.502;10.800;2023-05-10T03:02:40;2.28;;;2.08;;
20138;SDS011;10230;51.502;10.800;2023-05-10T03:05:06;2.67;;;2.43;;
20138;SDS011;10230;51.502;10.800;2023-05-10T03:07:33;3.47;;;1.97;;
20138;SDS011;10230;51.502;10.800;2023-05-10T03:09:59;4.27;;;1.87;;
20138;SDS011;10230;51.502;10.800;2023-05-10T03:15:11;5.20;;;2.27;;
20138;SDS011;10230;51.502;10.800;2023-05-10T03:20:12;4.63;;;2.23;;
20138;SDS011;10230;51.502;10.800;2023-05-10T03:22:44;3.27;;;2.00;;
20138;SDS011;10230;51.502;10.800;2023-05-10T03:25:11;2.55;;;1.70;;
20138;SDS011;10230;51.502;10.800;2023-05-10T03:27:39;3.93;;;1.90;;
20138;SDS011;10230;51.502;10.800;2023-05-10T03:30:06;2.37;;;1.90;;
20138;SDS011;10230;51.502;10.800;2023-05-10T03:32:33;4.30;;;2.30;;
20138;SDS011;10230;51.502;10.800;2023-05-10T03:34:59;3.90;;;2.63;;
20138;SDS011;10230;51.502;10.800;2023-05-10T03:37:27;3.60;;;1.83;;
20138;SDS011;10230;51.502;10.800;2023-05-10T03:39:53;4.20;;;2.53;;
20138;SDS011;10230;51.502;10.800;2023-05-10T03:42:19;3.60;;;2.30;;
20138;SDS011;10230;51.502;10.800;2023-05-10T03:44:45;3.83;;;2.05;;
20138;SDS011;10230;51.502;10.800;2023-05-10T03:47:11;4.10;;;2.10;;
20138;SDS011;10230;51.502;10.800;2023-05-10T03:49:37;2.65;;;2.03;;
20138;SDS011;10230;51.502;10.800;2023-05-10T03:52:03;3.70;;;2.00;;
20138;SDS011;10230;51.502;10.800;2023-05-10T03:54:30;3.95;;;2.35;;
20138;SDS011;10230;51.502;10.800;2023-05-10T03:56:57;3.93;;;2.00;;
20138;SDS011;10230;51.502;10.800;2023-05-10T03:59:23;2.42;;;2.00;;
20138;SDS011;10230;51.502;10.800;2023-05-10T04:01:48;4.43;;;1.95;;
20138;SDS011;10230;51.502;10.800;2023-05-10T04:04:14;4.57;;;2.80;;
20138;SDS011;10230;51.502;10.800;2023-05-10T04:06:40;2.70;;;2.22;;
20138;SDS011;10230;51.502;10.800;2023-05-10T04:09:06;3.15;;;2.35;;
20138;SDS011;10230;51.502;10.800;2023-05-10T04:11:33;3.10;;;2.58;;
20138;SDS011;10230;51.502;10.800;2023-05-10T04:13:59;3.58;;;2.85;;
20138;SDS011;10230;51.502;10.800;2023-05-10T04:16:25;4.72;;;2.70;;
20138;SDS011;10230;51.502;10.800;2023-05-10T04:18:50;7.30;;;4.53;;
20138;SDS011;10230;51.502;10.800;2023-05-10T04:21:16;3.67;;;2.95;;
20138;SDS011;10230;51.502;10.800;2023-05-10T04:23:42;5.05;;;2.60;;
20138;SDS011;10230;51.502;10.800;2023-05-10T04:26:08;5.80;;;2.80;;
20138;SDS011;10230;51.502;10.800;2023-05-10T04:28:33;3.38;;;2.58;;
20138;SDS011;10230;51.502;10.800;2023-05-10T04:31:03;3.50;;;2.30;;
20138;SDS011;10230;51.502;10.800;2023-05-10T04:33:29;3.78;;;2.60;;
20138;SDS011;10230;51.502;10.800;2023-05-10T04:35:55;4.37;;;2.87;;
20138;SDS011;10230;51.502;10.800;2023-05-10T04:38:21;2.80;;;2.40;;
20138;SDS011;10230;51.502;10.800;2023-05-10T04:40:47;3.45;;;2.47;;
20138;SDS011;10230;51.502;10.800;2023-05-10T04:43:13;5.65;;;2.70;;
20138;SDS011;10230;51.502;10.800;2023-05-10T04:45:39;3.30;;;2.50;;
20138;SDS011;10230;51.502;10.800;2023-05-10T04:48:04;2.60;;;2.30;;
20138;SDS011;10230;51.502;10.800;2023-05-10T04:50:30;3.30;;;2.58;;
20138;SDS011;10230;51.502;10.800;2023-05-10T04:52:57;3.83;;;2.72;;
20138;SDS011;10230;51.502;10.800;2023-05-10T04:55:23;3.50;;;2.50;;
20138;SDS011;10230;51.502;10.800;2023-05-10T04:57:48;2.92;;;2.58;;
20138;SDS011;10230;51.502;10.800;2023-05-10T05:00:14;6.00;;;3.15;;
20138;SDS011;10230;51.502;10.800;2023-05-10T05:02:44;3.47;;;2.10;;
20138;SDS011;10230;51.502;10.800;2023-05-10T05:05:10;5.38;;;2.72;;
20138;SDS011;10230;51.502;10.800;2023-05-10T05:07:36;3.03;;;2.53;;
20138;SDS011;10230;51.502;10.800;2023-05-10T05:10:03;3.75;;;2.92;;
20138;SDS011;10230;51.502;10.800;2023-05-10T05:12:30;2.95;;;2.58;;
20138;SDS011;10230;51.502;10.800;2023-05-10T05:14:56;3.17;;;2.53;;
20138;SDS011;10230;51.502;10.800;2023-05-10T05:17:22;3.40;;;2.45;;
20138;SDS011;10230;51.502;10.800;2023-05-10T05:19:48;3.17;;;2.85;;
20138;SDS011;10230;51.502;10.800;2023-05-10T05:22:13;4.97;;;2.40;;
20138;SDS011;10230;51.502;10.800;2023-05-10T05:24:39;4.75;;;2.50;;
20138;SDS011;10230;51.502;10.800;2023-05-10T05:27:05;2.65;;;2.10;;
20138;SDS011;10230;51.502;10.800;2023-05-10T05:29:33;4.55;;;3.13;;
20138;SDS011;10230;51.502;10.800;2023-05-10T05:31:59;5.10;;;2.65;;
20138;SDS011;10230;51.502;10.800;2023-05-10T05:34:25;2.42;;;2.17;;
20138;SDS011;10230;51.502;10.800;2023-05-10T05:36:51;2.80;;;1.90;;
20138;SDS011;10230;51.502;10.800;2023-05-10T05:39:17;2.50;;;2.00;;
20138;SDS011;10230;51.502;10.800;2023-05-10T05:41:42;3.63;;;2.10;;
20138;SDS011;10230;51.502;10.800;2023-05-10T05:44:08;3.50;;;1.98;;
20138;SDS011;10230;51.502;10.800;2023-05-10T05:46:34;3.47;;;2.30;;
20138;SDS011;10230;51.502;10.800;2023-05-10T05:49:00;4.38;;;2.55;;
20138;SDS011;10230;51.502;10.800;2023-05-10T05:51:26;17.02;;;2.58;;
20138;SDS011;10230;51.502;10.800;2023-05-10T05:53:51;2.65;;;1.77;;
20138;SDS011;10230;51.502;10.800;2023-05-10T05:56:17;2.92;;;1.90;;
20138;SDS011;10230;51.502;10.800;2023-05-10T05:58:49;3.33;;;2.10;;
20138;SDS011;10230;51.502;10.800;2023-05-10T06:01:15;3.63;;;2.03;;
20138;SDS011;10230;51.502;10.800;2023-05-10T06:03:41;2.92;;;2.30;;
20138;SDS011;10230;51.502;10.800;2023-05-10T06:06:07;5.15;;;2.65;;
20138;SDS011;10230;51.502;10.800;2023-05-10T06:08:32;2.80;;;2.17;;
20138;SDS011;10230;51.502;10.800;2023-05-10T06:10:59;3.20;;;2.30;;
20138;SDS011;10230;51.502;10.800;2023-05-10T06:13:25;4.22;;;2.17;;
20138;SDS011;10230;51.502;10.800;2023-05-10T06:15:56;3.65;;;2.05;;
20138;SDS011;10230;51.502;10.800;2023-05-10T06:18:26;3.60;;;2.25;;
20138;SDS011;10230;51.502;10.800;2023-05-10T06:20:51;2.88;;;2.42;;
20138;SDS011;10230;51.502;10.800;2023-05-10T06:23:17;4.53;;;2.88;;
20138;SDS011;10230;51.502;10.800;2023-05-10T06:25:43;3.20;;;2.65;;
20138;SDS011;10230;51.502;10.800;2023-05-10T06:28:08;5.05;;;2.53;;
20138;SDS011;10230;51.502;10.800;2023-05-10T06:30:35;2.53;;;2.22;;
20138;SDS011;10230;51.502;10.800;2023-05-10T06:33:01;2.42;;;2.10;;
20138;SDS011;10230;51.502;10.800;2023-05-10T06:35:27;2.70;;;2.10;;
20138;SDS011;10230;51.502;10.800;2023-05-10T06:37:54;2.83;;;2.30;;
20138;SDS011;10230;51.502;10.800;2023-05-10T06:40:19;3.17;;;2.30;;
20138;SDS011;10230;51.502;10.800;2023-05-10T06:42:46;2.92;;;1.88;;
20138;SDS011;10230;51.502;10.800;2023-05-10T06:45:12;3.85;;;2.22;;
20138;SDS011;10230;51.502;10.800;2023-05-10T06:47:39;3.63;;;2.63;;
20138;SDS011;10230;51.502;10.800;2023-05-10T06:50:06;2.90;;;2.60;;
20138;SDS011;10230;51.502;10.800;2023-05-10T06:52:32;4.40;;;2.88;;
20138;SDS011;10230;51.502;10.800;2023-05-10T06:54:59;4.05;;;2.75;;
20138;SDS011;10230;51.502;10.800;2023-05-10T06:57:25;2.42;;;2.05;;
20138;SDS011;10230;51.502;10.800;2023-05-10T06:59:51;3.42;;;2.45;;
20138;SDS011;10230;51.502;10.800;2023-05-10T07:02:17;3.25;;;2.45;;
20138;SDS011;10230;51.502;10.800;2023-05-10T07:04:43;4.97;;;2.80;;
20138;SDS011;10230;51.502;10.800;2023-05-10T07:07:09;2.93;;;2.60;;
20138;SDS011;10230;51.502;10.800;2023-05-10T07:09:35;4.22;;;3.10;;
20138;SDS011;10230;51.502;10.800;2023-05-10T07:12:00;5.57;;;4.10;;
20138;SDS011;10230;51.502;10.800;2023-05-10T07:14:26;7.80;;;3.45;;
20138;SDS011;10230;51.502;10.800;2023-05-10T07:16:52;7.32;;;4.32;;
20138;SDS011;10230;51.502;10.800;2023-05-10T07:19:18;4.13;;;3.25;;
20138;SDS011;10230;51.502;10.800;2023-05-10T07:21:44;4.70;;;3.28;;
20138;SDS011;10230;51.502;10.800;2023-05-10T07:24:10;9.68;;;4.38;;
20138;SDS011;10230;51.502;10.800;2023-05-10T07:26:36;5.75;;;3.28;;
20138;SDS011;10230;51.502;10.800;2023-05-10T07:29:03;5.05;;;2.72;;
20138;SDS011;10230;51.502;10.800;2023-05-10T07:31:28;3.80;;;2.63;;
20138;SDS011;10230;51.502;10.800;2023-05-10T07:33:54;4.90;;;3.75;;
20138;SDS011;10230;51.502;10.800;2023-05-10T07:36:20;4.18;;;3.17;;
20138;SDS011;10230;51.502;10.800;2023-05-10T07:38:45;4.80;;;3.55;;
20138;SDS011;10230;51.502;10.800;2023-05-10T07:41:11;3.33;;;2.92;;
20138;SDS011;10230;51.502;10.800;2023-05-10T07:43:37;6.65;;;4.93;;
20138;SDS011;10230;51.502;10.800;2023-05-10T07:46:03;3.00;;;2.67;;
20138;SDS011;10230;51.502;10.800;2023-05-10T07:48:30;4.47;;;2.60;;
20138;SDS011;10230;51.502;10.800;2023-05-10T07:50:56;2.67;;;2.45;;
20138;SDS011;10230;51.502;10.800;2023-05-10T07:53:22;3.10;;;2.80;;
20138;SDS011;10230;51.502;10.800;2023-05-10T07:55:51;2.58;;;2.38;;
20138;SDS011;10230;51.502;10.800;2023-05-10T07:58:19;3.30;;;2.58;;
20138;SDS011;10230;51.502;10.800;2023-05-10T08:00:45;4.38;;;2.67;;
20138;SDS011;10230;51.502;10.800;2023-05-10T08:03:10;3.80;;;2.92;;
20138;SDS011;10230;51.502;10.800;2023-05-10T08:05:36;4.75;;;2.55;;
20138;SDS011;10230;51.502;10.800;2023-05-10T08:08:02;3.08;;;2.35;;
20138;SDS011;10230;51.502;10.800;2023-05-10T08:10:27;5.35;;;2.53;;
20138;SDS011;10230;51.502;10.800;2023-05-10T08:12:53;3.45;;;2.50;;
20138;SDS011;10230;51.502;10.800;2023-05-10T08:15:19;4.90;;;2.63;;
20138;SDS011;10230;51.502;10.800;2023-05-10T08:17:45;2.90;;;2.40;;
20138;SDS011;10230;51.502;10.800;2023-05-10T08:20:11;4.50;;;3.50;;
20138;SDS011;10230;51.502;10.800;2023-05-10T08:22:37;2.55;;;2.35;;
20138;SDS011;10230;51.502;10.800;2023-05-10T08:25:03;2.88;;;2.15;;
20138;SDS011;10230;51.502;10.800;2023-05-10T08:27:29;3.83;;;2.53;;
20138;SDS011;10230;51.502;10.800;2023-05-10T08:29:55;3.47;;;3.17;;
20138;SDS011;10230;51.502;10.800;2023-05-10T08:32:20;3.95;;;2.88;;
20138;SDS011;10230;51.502;10.800;2023-05-10T08:34:46;5.55;;;3.65;;
20138;SDS011;10230;51.502;10.800;2023-05-10T08:37:12;3.42;;;2.95;;
20138;SDS011;10230;51.502;10.800;2023-05-10T08:39:38;4.60;;;2.72;;
20138;SDS011;10230;51.502;10.800;2023-05-10T08:42:04;2.90;;;2.42;;
20138;SDS011;10230;51.502;10.800;2023-05-10T08:44:34;2.60;;;2.35;;
20138;SDS011;10230;51.502;10.800;2023-05-10T08:47:04;2.80;;;2.17;;
20138;SDS011;10230;51.502;10.800;2023-05-10T08:49:33;4.70;;;2.78;;
20138;SDS011;10230;51.502;10.800;2023-05-10T08:52:02;4.22;;;2.42;;
20138;SDS011;10230;51.502;10.800;2023-05-10T08:54:29;4.07;;;2.58;;
20138;SDS011;10230;51.502;10.800;2023-05-10T08:56:56;3.33;;;2.75;;
20138;SDS011;10230;51.502;10.800;2023-05-10T08:59:22;2.45;;;2.25;;
20138;SDS011;10230;51.502;10.800;2023-05-10T09:01:48;3.15;;;2.47;;
20138;SDS011;10230;51.502;10.800;2023-05-10T09:04:15;2.90;;;2.22;;
20138;SDS011;10230;51.502;10.800;2023-05-10T09:06:41;2.83;;;2.53;;
20138;SDS011;10230;51.502;10.800;2023-05-10T09:09:06;4.20;;;2.67;;
20138;SDS011;10230;51.502;10.800;2023-05-10T09:11:32;3.50;;;2.50;;
20138;SDS011;10230;51.502;10.800;2023-05-10T09:13:59;2.40;;;2.20;;
20138;SDS011;10230;51.502;10.800;2023-05-10T09:16:26;2.55;;;2.15;;
20138;SDS011;10230;51.502;10.800;2023-05-10T09:18:51;4.00;;;2.78;;
20138;SDS011;10230;51.502;10.800;2023-05-10T09:21:18;3.40;;;2.58;;
20138;SDS011;10230;51.502;10.800;2023-05-10T09:23:45;2.58;;;2.15;;
20138;SDS011;10230;51.502;10.800;2023-05-10T09:26:11;3.63;;;1.98;;
20138;SDS011;10230;51.502;10.800;2023-05-10T09:34:15;4.15;;;2.67;;
20138;SDS011;10230;51.502;10.800;2023-05-10T09:36:55;3.08;;;2.35;;
20138;SDS011;10230;51.502;10.800;2023-05-10T09:39:35;3.33;;;2.47;;
20138;SDS011;10230;51.502;10.800;2023-05-10T09:42:05;3.35;;;2.40;;
20138;SDS011;10230;51.502;10.800;2023-05-10T09:44:35;5.40;;;1.98;;
20138;SDS011;10230;51.502;10.800;2023-05-10T09:47:02;2.10;;;1.67;;
20138;SDS011;10230;51.502;10.800;2023-05-10T09:49:28;2.70;;;1.95;;
20138;SDS011;10230;51.502;10.800;2023-05-10T09:52:04;2.35;;;1.75;;
20138;SDS011;10230;51.502;10.800;2023-05-10T09:54:31;2.38;;;2.08;;
20138;SDS011;10230;51.502;10.800;2023-05-10T09:56:58;2.65;;;1.63;;
20138;SDS011;10230;51.502;10.800;2023-05-10T09:59:26;2.28;;;1.50;;
20138;SDS011;10230;51.502;10.800;2023-05-10T10:01:55;2.42;;;1.58;;
20138;SDS011;10230;51.502;10.800;2023-05-10T10:04:22;3.88;;;1.85;;
20138;SDS011;10230;51.502;10.800;2023-05-10T10:06:58;2.40;;;1.67;;
20138;SDS011;10230;51.502;10.800;2023-05-10T10:09:25;2.38;;;1.30;;
20138;SDS011;10230;51.502;10.800;2023-05-10T10:11:50;1.73;;;1.40;;
20138;SDS011;10230;51.502;10.800;2023-05-10T10:14:18;1.88;;;1.63;;
20138;SDS011;10230;51.502;10.800;2023-05-10T10:16:44;1.38;;;1.20;;
20138;SDS011;10230;51.502;10.800;2023-05-10T10:19:10;1.38;;;1.27;;
20138;SDS011;10230;51.502;10.800;2023-05-10T10:21:37;3.72;;;1.60;;
20138;SDS011;10230;51.502;10.800;2023-05-10T10:24:03;2.10;;;1.65;;
20138;SDS011;10230;51.502;10.800;2023-05-10T10:26:30;1.08;;;1.02;;
20138;SDS011;10230;51.502;10.800;2023-05-10T10:34:30;1.90;;;1.35;;
20138;SDS011;10230;51.502;10.800;2023-05-10T10:36:57;1.70;;;1.50;;
20138;SDS011;10230;51.502;10.800;2023-05-10T10:39:28;1.80;;;1.60;;
20138;SDS011;10230;51.502;10.800;2023-05-10T10:46:59;1.48;;;1.27;;
20138;SDS011;10230;51.502;10.800;2023-05-10T10:49:25;2.80;;;1.50;;
20138;SDS011;10230;51.502;10.800;2023-05-10T10:57:43;2.95;;;1.83;;
20138;SDS011;10230;51.502;10.800;2023-05-10T11:00:26;3.40;;;1.58;;
20138;SDS011;10230;51.502;10.800;2023-05-10T11:07:54;1.35;;;1.25;;
20138;SDS011;10230;51.502;10.800;2023-05-10T11:10:21;1.35;;;1.13;;
20138;SDS011;10230;51.502;10.800;2023-05-10T11:13:03;1.58;;;1.30;;
20138;SDS011;10230;51.502;10.800;2023-05-10T11:17:56;1.65;;;0.90;;
20138;SDS011;10230;51.502;10.800;2023-05-10T11:20:21;0.98;;;0.90;;
20138;SDS011;10230;51.502;10.800;2023-05-10T11:22:52;1.00;;;0.93;;
20138;SDS011;10230;51.502;10.800;2023-05-10T11:25:19;0.75;;;0.55;;
20138;SDS011;10230;51.502;10.800;2023-05-10T11:27:46;0.98;;;0.40;;
20138;SDS011;10230;51.502;10.800;2023-05-10T11:30:13;0.60;;;0.50;;
20138;SDS011;10230;51.502;10.800;2023-05-10T11:32:40;1.58;;;0.30;;
20138;SDS011;10230;51.502;10.800;2023-05-10T11:35:06;0.32;;;0.32;;
20138;SDS011;10230;51.502;10.800;2023-05-10T11:37:36;0.40;;;0.40;;
20138;SDS011;10230;51.502;10.800;2023-05-10T11:40:07;0.68;;;0.40;;
20138;SDS011;10230;51.502;10.800;2023-05-10T11:42:35;0.90;;;0.50;;
20138;SDS011;10230;51.502;10.800;2023-05-10T11:45:04;0.60;;;0.30;;
20138;SDS011;10230;51.502;10.800;2023-05-10T11:47:31;0.80;;;0.20;;
20138;SDS011;10230;51.502;10.800;2023-05-10T11:49:56;0.77;;;0.30;;
20138;SDS011;10230;51.502;10.800;2023-05-10T11:52:22;0.60;;;0.38;;
20138;SDS011;10230;51.502;10.800;2023-05-10T11:54:51;1.45;;;0.40;;
20138;SDS011;10230;51.502;10.800;2023-05-10T11:57:25;0.35;;;0.22;;
20138;SDS011;10230;51.502;10.800;2023-05-10T11:59:58;0.57;;;0.20;;
20138;SDS011;10230;51.502;10.800;2023-05-10T12:02:24;0.40;;;0.20;;
20138;SDS011;10230;51.502;10.800;2023-05-10T12:04:50;0.28;;;0.28;;
20138;SDS011;10230;51.502;10.800;2023-05-10T12:07:16;0.68;;;0.30;;
20138;SDS011;10230;51.502;10.800;2023-05-10T12:09:43;0.70;;;0.32;;
20138;SDS011;10230;51.502;10.800;2023-05-10T12:12:10;0.40;;;0.40;;
20138;SDS011;10230;51.502;10.800;2023-05-10T12:14:36;0.80;;;0.52;;
20138;SDS011;10230;51.502;10.800;2023-05-10T12:17:02;0.75;;;0.30;;
20138;SDS011;10230;51.502;10.800;2023-05-10T12:19:27;0.52;;;0.30;;
20138;SDS011;10230;51.502;10.800;2023-05-10T12:21:53;0.60;;;0.55;;
20138;SDS011;10230;51.502;10.800;2023-05-10T12:24:19;0.20;;;0.13;;
20138;SDS011;10230;51.502;10.800;2023-05-10T12:26:46;0.50;;;0.45;;
20138;SDS011;10230;51.502;10.800;2023-05-10T12:29:17;1.02;;;0.63;;
20138;SDS011;10230;51.502;10.800;2023-05-10T12:31:53;0.70;;;0.50;;
20138;SDS011;10230;51.502;10.800;2023-05-10T12:34:32;0.20;;;0.20;;
20138;SDS011;10230;51.502;10.800;2023-05-10T12:36:59;0.98;;;0.80;;
20138;SDS011;10230;51.502;10.800;2023-05-10T12:39:25;0.60;;;0.30;;
20138;SDS011;10230;51.502;10.800;2023-05-10T12:42:02;0.68;;;0.47;;
20138;SDS011;10230;51.502;10.800;2023-05-10T12:44:28;0.52;;;0.52;;
20138;SDS011;10230;51.502;10.800;2023-05-10T12:46:54;0.25;;;0.20;;
20138;SDS011;10230;51.502;10.800;2023-05-10T12:49:19;0.15;;;0.15;;
20138;SDS011;10230;51.502;10.800;2023-05-10T12:51:45;5.47;;;2.70;;
20138;SDS011;10230;51.502;10.800;2023-05-10T12:54:11;3.40;;;2.08;;
20138;SDS011;10230;51.502;10.800;2023-05-10T12:56:36;1.05;;;0.68;;
20138;SDS011;10230;51.502;10.800;2023-05-10T12:59:02;0.10;;;0.10;;
20138;SDS011;10230;51.502;10.800;2023-05-10T13:01:28;0.25;;;0.20;;
20138;SDS011;10230;51.502;10.800;2023-05-10T13:03:54;0.75;;;0.30;;
20138;SDS011;10230;51.502;10.800;2023-05-10T13:06:19;0.50;;;0.50;;
20138;SDS011;10230;51.502;10.800;2023-05-10T13:08:45;0.28;;;0.28;;
20138;SDS011;10230;51.502;10.800;2023-05-10T13:11:10;0.65;;;0.20;;
20138;SDS011;10230;51.502;10.800;2023-05-10T13:13:36;0.35;;;0.30;;
20138;SDS011;10230;51.502;10.800;2023-05-10T13:16:02;0.22;;;0.22;;
20138;SDS011;10230;51.502;10.800;2023-05-10T13:18:28;0.20;;;0.20;;
20138;SDS011;10230;51.502;10.800;2023-05-10T13:20:53;0.13;;;0.10;;
20138;SDS011;10230;51.502;10.800;2023-05-10T13:23:20;1.30;;;0.50;;
20138;SDS011;10230;51.502;10.800;2023-05-10T13:25:46;0.52;;;0.30;;
20138;SDS011;10230;51.502;10.800;2023-05-10T13:28:12;0.10;;;0.10;;
20138;SDS011;10230;51.502;10.800;2023-05-10T13:30:38;0.40;;;0.13;;
20138;SDS011;10230;51.502;10.800;2023-05-10T13:33:05;0.15;;;0.15;;
20138;SDS011;10230;51.502;10.800;2023-05-10T13:35:31;0.22;;;0.20;;
20138;SDS011;10230;51.502;10.800;2023-05-10T13:37:57;0.52;;;0.52;;
20138;SDS011;10230;51.502;10.800;2023-05-10T13:40:23;1.00;;;0.40;;
20138;SDS011;10230;51.502;10.800;2023-05-10T13:42:49;1.67;;;0.20;;
20138;SDS011;10230;51.502;10.800;2023-05-10T13:45:15;0.30;;;0.13;;
20138;SDS011;10230;51.502;10.800;2023-05-10T13:47:41;0.75;;;0.40;;
20138;SDS011;10230;51.502;10.800;2023-05-10T13:50:08;0.60;;;0.30;;
20138;SDS011;10230;51.502;10.800;2023-05-10T13:52:34;0.40;;;0.30;;
20138;SDS011;10230;51.502;10.800;2023-05-10T13:55:00;0.60;;;0.43;;
20138;SDS011;10230;51.502;10.800;2023-05-10T13:57:26;1.35;;;0.20;;
20138;SDS011;10230;51.502;10.800;2023-05-10T13:59:53;0.52;;;0.30;;
20138;SDS011;10230;51.502;10.800;2023-05-10T14:02:20;0.38;;;0.20;;
20138;SDS011;10230;51.502;10.800;2023-05-10T14:04:46;0.45;;;0.30;;
20138;SDS011;10230;51.502;10.800;2023-05-10T14:07:13;0.52;;;0.30;;
20138;SDS011;10230;51.502;10.800;2023-05-10T14:09:39;0.20;;;0.20;;
20138;SDS011;10230;51.502;10.800;2023-05-10T14:12:05;1.33;;;0.50;;
20138;SDS011;10230;51.502;10.800;2023-05-10T14:14:31;0.52;;;0.32;;
20138;SDS011;10230;51.502;10.800;2023-05-10T14:16:57;0.85;;;0.20;;
20138;SDS011;10230;51.502;10.800;2023-05-10T14:19:24;0.22;;;0.20;;
20138;SDS011;10230;51.502;10.800;2023-05-10T14:21:49;0.50;;;0.30;;
20138;SDS011;10230;51.502;10.800;2023-05-10T14:24:16;0.60;;;0.10;;
20138;SDS011;10230;51.502;10.800;2023-05-10T14:26:42;0.20;;;0.20;;
20138;SDS011;10230;51.502;10.800;2023-05-10T14:29:08;0.70;;;0.30;;
20138;SDS011;10230;51.502;10.800;2023-05-10T14:31:33;0.43;;;0.20;;
20138;SDS011;10230;51.502;10.800;2023-05-10T14:33:59;0.43;;;0.10;;
20138;SDS011;10230;51.502;10.800;2023-05-10T14:36:25;0.40;;;0.35;;
20138;SDS011;10230;51.502;10.800;2023-05-10T14:38:50;0.57;;;0.50;;
20138;SDS011;10230;51.502;10.800;2023-05-10T14:41:16;0.82;;;0.55;;
20138;SDS011;10230;51.502;10.800;2023-05-10T14:43:42;0.63;;;0.20;;
20138;SDS011;10230;51.502;10.800;2023-05-10T14:46:08;0.30;;;0.10;;
20138;SDS011;10230;51.502;10.800;2023-05-10T14:48:34;0.03;;;0.00;;
20138;SDS011;10230;51.502;10.800;2023-05-10T14:51:00;0.10;;;0.10;;
20138;SDS011;10230;51.502;10.800;2023-05-10T14:53:25;0.40;;;0.30;;
20138;SDS011;10230;51.502;10.800;2023-05-10T14:55:51;0.47;;;0.25;;
20138;SDS011;10230;51.502;10.800;2023-05-10T14:58:17;1.75;;;0.50;;
20138;SDS011;10230;51.502;10.800;2023-05-10T15:00:43;0.93;;;0.63;;
20138;SDS011;10230;51.502;10.800;2023-05-10T15:03:08;0.70;;;0.45;;
20138;SDS011;10230;51.502;10.800;2023-05-10T15:05:34;0.52;;;0.20;;
20138;SDS011;10230;51.502;10.800;2023-05-10T15:08:02;0.32;;;0.30;;
20138;SDS011;10230;51.502;10.800;2023-05-10T15:10:28;0.15;;;0.10;;
20138;SDS011;10230;51.502;10.800;2023-05-10T15:12:53;0.40;;;0.32;;
20138;SDS011;10230;51.502;10.800;2023-05-10T15:15:19;0.75;;;0.20;;
20138;SDS011;10230;51.502;10.800;2023-05-10T15:17:44;0.20;;;0.20;;
20138;SDS011;10230;51.502;10.800;2023-05-10T15:20:10;0.50;;;0.40;;
20138;SDS011;10230;51.502;10.800;2023-05-10T15:22:37;0.50;;;0.45;;
20138;SDS011;10230;51.502;10.800;2023-05-10T15:25:03;0.43;;;0.30;;